KSUX/SUX METAR and TAF weather

Enter ICAO airport designator
Station Type Date Time Source
KSUX METAR 2020/03/31 06:52 UTC NOAA

KSUX 310652Z AUTO 08004KT 10SM OVC110 07/M02 A3010 RMK AO2 SLP194 T00721017


Station Type Date Time Source
KSUX Decoded METAR 2020/03/31 06:52 UTC NOAA

SIOUX GATEWAY AIRPORT, IA, United States (KSUX) 42-23N 96-23W 338M
Mar 31, 2020 - 02:52 AM EDT / 2020.03.31 0652 UTC
Wind: from the E (080 degrees) at 5 MPH (4 KT):0
Visibility: 10 mile(s):0
Sky conditions: overcast
Temperature: 45.0 F (7.2 C)
Dew Point: 28.9 F (-1.7 C)
Relative Humidity: 53%
Pressure (altimeter): 30.1 in. Hg (1019 hPa)
ob: KSUX 310652Z AUTO 08004KT 10SM OVC110 07/M02 A3010 RMK AO2 SLP194 T00721017
cycle: 7

Station Type Date Time Source
KSUX TAF 2020/03/31 06:36 UTC NOAA

TAF KSUX 310533Z 3106/0106 10008KT P6SM OVC100
FM311000 VRB04KT P6SM BKN080
FM311700 16009KT P6SM SCT150
FM311900 17010G15KT P6SM FEW150
FM010000 16009KT P6SM FEW100

Example: see airport list